createdAt,value
2019-05-11T00:00:32.731Z,11.90
2019-05-11T00:02:59.298Z,11.60
2019-05-11T00:05:25.901Z,11.70
2019-05-11T00:07:52.137Z,11.50
2019-05-11T00:10:18.430Z,11.20
2019-05-11T00:12:44.615Z,11.10
2019-05-11T00:15:10.919Z,11.20
2019-05-11T00:17:37.475Z,11.40
2019-05-11T00:20:06.913Z,11.40
2019-05-11T00:22:33.316Z,11.60
2019-05-11T00:24:59.844Z,11.90
2019-05-11T00:27:26.090Z,12.00
2019-05-11T00:29:52.352Z,12.10
2019-05-11T00:32:22.616Z,12.10
2019-05-11T00:34:47.257Z,12.10
2019-05-11T00:37:13.842Z,12.10
2019-05-11T00:39:40.059Z,12.10
2019-05-11T00:42:06.329Z,12.00
2019-05-11T00:44:32.935Z,11.90
2019-05-11T00:46:59.188Z,12.00
2019-05-11T00:49:25.387Z,12.10
2019-05-11T00:51:51.654Z,12.10
2019-05-11T00:54:17.887Z,11.90
2019-05-11T00:56:44.119Z,11.90
2019-05-11T00:59:21.381Z,12.00
2019-05-11T01:01:39.019Z,12.00
2019-05-11T01:04:05.656Z,11.80
2019-05-11T01:06:32.321Z,11.50
2019-05-11T01:08:58.928Z,11.30
2019-05-11T01:11:25.167Z,11.20
2019-05-11T01:13:51.375Z,11.10
2019-05-11T01:16:17.629Z,11.00
2019-05-11T01:18:44.263Z,10.90
2019-05-11T01:21:10.877Z,11.00
2019-05-11T01:23:37.139Z,11.10
2019-05-11T01:26:03.350Z,11.30
2019-05-11T01:28:29.600Z,11.20
2019-05-11T01:30:55.814Z,11.10
2019-05-11T01:33:22.427Z,11.00
2019-05-11T01:35:51.083Z,11.00
2019-05-11T01:38:16.710Z,11.10
2019-05-11T01:40:57.762Z,11.20
2019-05-11T01:43:11.445Z,11.20
2019-05-11T01:45:37.777Z,11.10
2019-05-11T01:48:04.335Z,10.90
2019-05-11T01:50:30.539Z,10.90
2019-05-11T01:52:56.792Z,10.80
2019-05-11T01:55:23.424Z,10.80
2019-05-11T01:57:50.096Z,10.70
2019-05-11T02:00:16.877Z,10.80
2019-05-11T02:02:43.345Z,10.70
2019-05-11T02:05:28.518Z,10.70
2019-05-11T02:07:55.746Z,10.80
2019-05-11T02:10:22.181Z,10.80
2019-05-11T02:12:48.751Z,10.90
2019-05-11T02:15:15.348Z,10.90
2019-05-11T02:17:41.606Z,11.00
2019-05-11T02:20:07.924Z,11.40
2019-05-11T02:22:34.480Z,11.50
2019-05-11T02:25:01.104Z,11.80
2019-05-11T02:27:27.380Z,11.80
2019-05-11T02:29:53.965Z,12.00
2019-05-11T02:32:20.228Z,11.80
2019-05-11T02:34:46.835Z,11.70
2019-05-11T02:37:13.063Z,11.40
2019-05-11T02:39:39.808Z,11.40
2019-05-11T02:42:06.531Z,11.60
2019-05-11T02:44:33.015Z,11.70
2019-05-11T02:46:59.628Z,11.80
2019-05-11T02:49:28.130Z,11.70
2019-05-11T02:51:54.745Z,11.70
2019-05-11T02:54:21.268Z,11.80
2019-05-11T02:56:47.861Z,11.70
2019-05-11T02:59:14.441Z,11.60
2019-05-11T03:01:40.695Z,11.60
2019-05-11T03:04:06.940Z,11.40
2019-05-11T03:06:33.595Z,11.30
2019-05-11T03:08:59.802Z,11.20
2019-05-11T03:11:26.443Z,11.30
2019-05-11T03:13:53.064Z,11.40
2019-05-11T03:16:19.251Z,11.30
2019-05-11T03:18:45.531Z,11.30
2019-05-11T03:21:12.140Z,11.00
2019-05-11T03:23:38.397Z,11.10
2019-05-11T03:26:05.117Z,11.30
2019-05-11T03:28:31.708Z,11.50
2019-05-11T03:30:58.297Z,11.30
2019-05-11T03:33:25.077Z,11.10
2019-05-11T03:35:51.573Z,11.10
2019-05-11T03:38:17.796Z,10.90
2019-05-11T03:40:44.058Z,10.90
2019-05-11T03:43:10.680Z,10.90
2019-05-11T03:45:38.152Z,11.20
2019-05-11T03:48:04.782Z,11.40
2019-05-11T03:50:31.431Z,11.50
2019-05-11T03:52:58.023Z,11.50
2019-05-11T03:55:24.305Z,11.50
2019-05-11T03:57:50.915Z,11.50
2019-05-11T04:00:17.367Z,11.50
2019-05-11T04:02:43.665Z,11.20
2019-05-11T04:05:10.452Z,11.00
2019-05-11T04:07:37.048Z,10.90
2019-05-11T04:10:05.585Z,11.10
2019-05-11T04:12:35.173Z,11.20
2019-05-11T04:15:01.096Z,11.10
2019-05-11T04:17:27.802Z,10.90
2019-05-11T04:19:54.352Z,11.00
2019-05-11T04:22:20.748Z,10.80
2019-05-11T04:24:46.962Z,10.80
2019-05-11T04:27:18.929Z,10.90
2019-05-11T04:29:42.544Z,10.80
2019-05-11T04:32:08.782Z,10.90
2019-05-11T04:34:35.020Z,10.80
2019-05-11T04:37:01.745Z,10.70
2019-05-11T04:39:27.952Z,10.80
2019-05-11T04:41:54.080Z,10.70
2019-05-11T04:44:20.344Z,10.70
2019-05-11T04:46:46.956Z,10.70
2019-05-11T04:49:13.216Z,10.50
2019-05-11T04:51:39.821Z,10.50
2019-05-11T04:54:06.061Z,10.40
2019-05-11T04:56:32.713Z,10.50
2019-05-11T04:58:59.336Z,10.60
2019-05-11T05:01:25.700Z,10.60
2019-05-11T05:03:54.090Z,10.70
2019-05-11T05:06:23.995Z,10.60
2019-05-11T05:08:48.742Z,10.60
2019-05-11T05:11:14.975Z,10.60
2019-05-11T05:13:41.227Z,10.60
2019-05-11T05:16:07.436Z,10.70
2019-05-11T05:18:33.708Z,10.80
2019-05-11T05:21:00.318Z,11.00
2019-05-11T05:23:26.963Z,10.90
2019-05-11T05:25:53.580Z,10.90
2019-05-11T05:28:19.842Z,11.00
2019-05-11T05:30:46.470Z,10.90
2019-05-11T05:33:13.089Z,10.80
2019-05-11T05:35:39.343Z,10.80
2019-05-11T05:38:05.983Z,10.80
2019-05-11T05:40:32.619Z,10.80
2019-05-11T05:42:59.226Z,10.70
2019-05-11T05:45:25.501Z,10.80
2019-05-11T05:47:52.104Z,10.70
2019-05-11T05:50:18.486Z,10.80
2019-05-11T05:52:44.964Z,10.80
2019-05-11T05:55:11.286Z,10.70
2019-05-11T05:57:37.859Z,10.70
2019-05-11T06:00:05.571Z,10.70
2019-05-11T06:02:31.953Z,10.70
2019-05-11T06:04:58.567Z,10.60
2019-05-11T06:07:24.823Z,10.60
2019-05-11T06:09:50.933Z,10.60
2019-05-11T06:12:17.255Z,10.70
2019-05-11T06:14:43.607Z,10.70
2019-05-11T06:17:10.111Z,10.60
2019-05-11T06:19:36.439Z,10.60
2019-05-11T06:22:02.987Z,10.60
2019-05-11T06:24:29.219Z,10.60
2019-05-11T06:26:55.471Z,10.60
2019-05-11T06:29:22.098Z,10.70
2019-05-11T06:31:48.757Z,10.60
2019-05-11T06:34:14.938Z,10.60
2019-05-11T06:36:41.207Z,10.90
2019-05-11T06:39:07.907Z,10.90
2019-05-11T06:41:35.480Z,10.90
2019-05-11T06:44:02.468Z,11.00
2019-05-11T06:46:28.950Z,11.20
2019-05-11T06:48:55.231Z,11.30
2019-05-11T06:51:21.514Z,11.30
2019-05-11T06:53:47.660Z,11.40
2019-05-11T06:56:13.887Z,11.50
2019-05-11T06:58:40.091Z,11.50
2019-05-11T07:01:06.428Z,11.50
2019-05-11T07:03:32.990Z,11.60
2019-05-11T07:05:59.207Z,11.70
2019-05-11T07:08:25.461Z,11.70
2019-05-11T07:10:51.685Z,11.70
2019-05-11T07:13:17.920Z,11.90
2019-05-11T07:15:44.630Z,11.80
2019-05-11T07:18:11.195Z,11.90
2019-05-11T07:20:49.436Z,12.30
2019-05-11T07:23:05.671Z,12.50
2019-05-11T07:25:32.035Z,12.50
2019-05-11T07:27:58.536Z,12.70
2019-05-11T07:30:24.849Z,13.40
2019-05-11T07:32:50.991Z,13.80
2019-05-11T07:35:18.805Z,13.80
2019-05-11T07:37:47.712Z,14.20
2019-05-11T07:40:13.583Z,14.60
2019-05-11T07:42:39.783Z,15.00
2019-05-11T07:45:08.905Z,14.50
2019-05-11T07:47:37.783Z,14.80
2019-05-11T07:50:08.238Z,14.60
2019-05-11T07:52:34.327Z,15.10
2019-05-11T07:55:00.583Z,15.80
2019-05-11T07:57:28.364Z,16.80
2019-05-11T07:59:55.216Z,17.20
2019-05-11T08:02:21.568Z,17.40
2019-05-11T08:04:48.268Z,17.70
2019-05-11T08:07:14.723Z,16.80
2019-05-11T08:09:41.228Z,16.40
2019-05-11T08:12:08.996Z,16.40
2019-05-11T08:14:51.995Z,16.30
2019-05-11T08:17:03.396Z,16.70
2019-05-11T08:19:29.876Z,17.10
2019-05-11T08:21:58.237Z,16.80
2019-05-11T08:24:24.529Z,17.30
2019-05-11T08:26:50.731Z,17.60
2019-05-11T08:29:18.532Z,17.80
2019-05-11T08:31:48.618Z,16.90
2019-05-11T08:34:14.596Z,17.30
2019-05-11T08:36:40.807Z,17.80
2019-05-11T08:39:07.863Z,17.90
2019-05-11T08:41:35.292Z,18.20
2019-05-11T08:44:01.416Z,18.10
2019-05-11T08:46:28.063Z,17.90
2019-05-11T08:48:54.366Z,17.90
2019-05-11T08:51:20.583Z,16.80
2019-05-11T08:53:48.038Z,16.80
2019-05-11T08:56:14.740Z,17.40
2019-05-11T08:58:40.951Z,18.60
2019-05-11T09:01:08.847Z,19.30
2019-05-11T09:03:35.499Z,20.10
2019-05-11T09:06:01.610Z,19.40
2019-05-11T09:08:28.458Z,18.80
2019-05-11T09:10:54.648Z,17.70
2019-05-11T09:13:20.781Z,17.10
2019-05-11T09:15:48.402Z,18.40
2019-05-11T09:18:14.951Z,18.60
2019-05-11T09:20:41.151Z,17.10
2019-05-11T09:23:08.254Z,17.00
2019-05-11T09:25:34.796Z,16.60
2019-05-11T09:28:00.909Z,17.00
2019-05-11T09:30:28.798Z,16.40
2019-05-11T09:32:55.076Z,16.60
2019-05-11T09:35:21.338Z,16.00
2019-05-11T09:37:48.455Z,15.60
2019-05-11T09:40:15.304Z,16.90
2019-05-11T09:42:41.517Z,18.60
2019-05-11T09:45:08.371Z,18.40
2019-05-11T09:47:34.593Z,17.20
2019-05-11T09:50:00.840Z,16.30
2019-05-11T09:52:32.243Z,17.40
2019-05-11T09:54:58.002Z,18.00
2019-05-11T09:57:24.410Z,19.30
2019-05-11T09:59:50.620Z,19.50
2019-05-11T10:02:20.411Z,20.50
2019-05-11T10:04:44.793Z,20.70
2019-05-11T10:07:11.366Z,20.40
2019-05-11T10:09:38.343Z,20.40
2019-05-11T10:12:05.014Z,20.70
2019-05-11T10:14:31.119Z,19.60
2019-05-11T10:16:58.442Z,19.30
2019-05-11T10:19:25.074Z,19.20
2019-05-11T10:21:51.446Z,18.40
2019-05-11T10:24:17.844Z,17.40
2019-05-11T10:26:44.467Z,16.40
2019-05-11T10:29:10.713Z,16.80
2019-05-11T10:31:38.579Z,18.70
2019-05-11T10:34:05.145Z,20.80
2019-05-11T10:36:31.414Z,21.20
2019-05-11T10:38:58.794Z,19.00
2019-05-11T10:41:25.470Z,17.70
2019-05-11T10:43:51.704Z,18.90
2019-05-11T10:46:23.080Z,19.70
2019-05-11T10:48:48.351Z,19.90
2019-05-11T10:51:14.395Z,20.80
2019-05-11T10:53:40.774Z,20.30
2019-05-11T10:56:08.778Z,19.20
2019-05-11T10:58:37.662Z,18.30
2019-05-11T11:01:03.649Z,18.30
2019-05-11T11:03:30.161Z,19.60
2019-05-11T11:05:58.052Z,20.80
2019-05-11T11:08:24.670Z,20.60
2019-05-11T11:10:50.803Z,20.70
2019-05-11T11:13:18.933Z,19.10
2019-05-11T11:15:45.451Z,19.30
2019-05-11T11:18:12.066Z,19.90
2019-05-11T11:20:38.542Z,20.70
2019-05-11T11:23:05.421Z,20.60
2019-05-11T11:25:31.582Z,19.90
2019-05-11T11:27:57.961Z,19.70
2019-05-11T11:30:24.682Z,20.60
2019-05-11T11:32:51.063Z,19.20
2019-05-11T11:35:18.721Z,17.90
2019-05-11T11:37:47.730Z,18.60
2019-05-11T11:40:17.617Z,20.20
2019-05-11T11:42:43.762Z,20.10
2019-05-11T11:45:11.471Z,18.50
2019-05-11T11:47:38.562Z,18.00
2019-05-11T11:50:09.167Z,19.30
2019-05-11T11:52:38.105Z,20.00
2019-05-11T11:55:10.306Z,19.20
2019-05-11T11:57:38.036Z,18.00
2019-05-11T12:00:09.189Z,18.80
2019-05-11T12:02:35.346Z,19.80
2019-05-11T12:05:03.346Z,21.20
2019-05-11T12:07:29.822Z,21.10
2019-05-11T12:09:58.583Z,21.00
2019-05-11T12:12:24.351Z,21.20
2019-05-11T12:14:50.967Z,21.60
2019-05-11T12:17:18.239Z,20.30
2019-05-11T12:19:44.657Z,20.90
2019-05-11T12:22:10.938Z,20.30
2019-05-11T12:24:37.635Z,19.00
2019-05-11T12:27:04.178Z,17.80
2019-05-11T12:29:30.784Z,18.80
2019-05-11T12:31:59.027Z,19.80
2019-05-11T12:34:25.294Z,19.60
2019-05-11T12:36:51.530Z,19.40
2019-05-11T12:39:19.195Z,18.20
2019-05-11T12:41:47.794Z,17.90
2019-05-11T12:44:13.932Z,19.50
2019-05-11T12:46:40.136Z,20.00
2019-05-11T12:49:07.848Z,19.40
2019-05-11T12:51:34.300Z,19.20
2019-05-11T12:54:00.487Z,18.10
2019-05-11T12:56:27.744Z,18.20
2019-05-11T12:58:54.174Z,18.30
2019-05-11T13:01:20.399Z,19.10
2019-05-11T13:03:49.222Z,19.10
2019-05-11T13:06:15.398Z,19.00
2019-05-11T13:08:41.992Z,19.40
2019-05-11T13:11:08.550Z,19.10
2019-05-11T13:13:34.687Z,18.90
2019-05-11T13:16:01.013Z,19.20
2019-05-11T13:18:27.945Z,18.70
2019-05-11T13:20:54.310Z,18.20
2019-05-11T13:23:20.502Z,17.70
2019-05-11T13:25:48.045Z,17.20
2019-05-11T13:28:14.617Z,17.20
2019-05-11T13:30:40.906Z,17.30
2019-05-11T13:33:08.587Z,17.60
2019-05-11T13:35:37.537Z,17.50
2019-05-11T13:38:03.692Z,17.20
2019-05-11T13:40:29.873Z,17.40
2019-05-11T13:42:58.083Z,17.30
2019-05-11T13:45:24.367Z,17.60
2019-05-11T13:47:55.457Z,17.40
2019-05-11T13:50:18.879Z,17.50
2019-05-11T13:52:45.115Z,17.00
2019-05-11T13:55:11.692Z,16.90
2019-05-11T13:57:38.939Z,17.30
2019-05-11T14:00:08.440Z,17.50
2019-05-11T14:02:34.780Z,17.50
2019-05-11T14:05:00.992Z,17.20
2019-05-11T14:07:27.655Z,17.10
2019-05-11T14:09:54.025Z,17.10
2019-05-11T14:12:20.269Z,17.10
2019-05-11T14:14:48.080Z,17.60
2019-05-11T14:17:14.379Z,17.50
2019-05-11T14:19:40.616Z,17.50
2019-05-11T14:22:08.627Z,17.30
2019-05-11T14:24:34.851Z,17.20
2019-05-11T14:27:00.978Z,16.90
2019-05-11T14:29:28.369Z,16.70
2019-05-11T14:31:55.042Z,16.90
2019-05-11T14:34:21.285Z,17.10
2019-05-11T14:36:48.028Z,17.10
2019-05-11T14:39:14.515Z,16.70
2019-05-11T14:41:40.750Z,16.40
2019-05-11T14:44:08.835Z,16.60
2019-05-11T14:46:34.962Z,16.30
2019-05-11T14:49:01.075Z,16.10
2019-05-11T14:51:28.270Z,16.00
2019-05-11T14:53:56.674Z,15.90
2019-05-11T14:56:22.763Z,15.80
2019-05-11T14:58:49.376Z,15.90
2019-05-11T15:01:18.091Z,16.30
2019-05-11T15:03:43.878Z,16.40
2019-05-11T15:06:10.014Z,16.50
2019-05-11T15:08:38.548Z,16.40
2019-05-11T15:11:04.337Z,16.20
2019-05-11T15:13:30.538Z,15.90
2019-05-11T15:15:58.539Z,15.70
2019-05-11T15:18:37.928Z,15.80
2019-05-11T15:20:52.707Z,15.90
2019-05-11T15:23:18.942Z,15.80
2019-05-11T15:25:45.058Z,15.80
2019-05-11T15:28:11.163Z,15.60
2019-05-11T15:30:38.465Z,15.60
2019-05-11T15:33:04.685Z,15.60
2019-05-11T15:35:31.025Z,15.50
2019-05-11T15:37:58.252Z,15.40
2019-05-11T15:40:27.775Z,15.50
2019-05-11T15:42:53.846Z,15.60
2019-05-11T15:45:20.078Z,15.40
2019-05-11T15:47:48.406Z,15.40
2019-05-11T15:50:15.903Z,15.30
2019-05-11T15:52:42.007Z,15.20
2019-05-11T15:55:09.510Z,15.20
2019-05-11T15:57:35.763Z,15.00
2019-05-11T16:00:04.069Z,15.10
2019-05-11T16:02:30.300Z,15.20
2019-05-11T16:04:58.251Z,15.20
2019-05-11T16:07:24.495Z,15.00
2019-05-11T16:09:50.914Z,14.80
2019-05-11T16:12:18.178Z,14.70
2019-05-11T16:14:44.910Z,14.70
2019-05-11T16:17:11.151Z,14.80
2019-05-11T16:19:38.028Z,15.00
2019-05-11T16:22:05.460Z,15.10
2019-05-11T16:24:31.738Z,15.20
2019-05-11T16:26:58.958Z,15.10
2019-05-11T16:29:27.960Z,15.00
2019-05-11T16:31:53.313Z,14.80
2019-05-11T16:34:19.545Z,14.70
2019-05-11T16:36:47.931Z,14.70
2019-05-11T16:39:13.914Z,14.60
2019-05-11T16:41:40.157Z,14.40
2019-05-11T16:44:07.834Z,14.30
2019-05-11T16:46:34.592Z,14.30
2019-05-11T16:49:01.949Z,14.30
2019-05-11T16:51:28.543Z,14.20
2019-05-11T16:53:54.933Z,14.30
2019-05-11T16:56:21.145Z,14.30
2019-05-11T16:58:48.457Z,14.20
2019-05-11T17:01:15.213Z,14.00
2019-05-11T17:03:41.458Z,14.00
2019-05-11T17:06:08.283Z,14.00
2019-05-11T17:08:35.061Z,13.90
2019-05-11T17:11:01.305Z,13.70
2019-05-11T17:13:27.531Z,13.60
2019-05-11T17:15:53.885Z,13.50
2019-05-11T17:18:20.217Z,13.50
2019-05-11T17:20:46.913Z,13.40
2019-05-11T17:23:13.150Z,13.40
2019-05-11T17:25:39.413Z,13.30
2019-05-11T17:28:09.248Z,13.30
2019-05-11T17:30:33.713Z,13.30
2019-05-11T17:32:59.992Z,13.30
2019-05-11T17:35:26.240Z,13.20
2019-05-11T17:37:52.461Z,13.30
2019-05-11T17:40:23.105Z,13.30
2019-05-11T17:42:48.047Z,13.30
2019-05-11T17:45:14.613Z,13.20
2019-05-11T17:47:40.898Z,13.10
2019-05-11T17:50:08.129Z,13.10
2019-05-11T17:52:34.538Z,13.30
2019-05-11T17:55:00.745Z,13.30
2019-05-11T17:57:27.788Z,13.20
2019-05-11T17:59:54.433Z,12.90
2019-05-11T18:02:20.760Z,12.70
2019-05-11T18:04:49.189Z,12.60
2019-05-11T18:07:25.081Z,12.50
2019-05-11T18:09:43.158Z,12.30
2019-05-11T18:12:09.857Z,12.30
2019-05-11T18:14:39.362Z,12.30
2019-05-11T18:17:04.600Z,12.10
2019-05-11T18:19:30.822Z,12.10
2019-05-11T18:21:57.760Z,12.10
2019-05-11T18:24:24.109Z,12.00
2019-05-11T18:26:50.461Z,11.90
2019-05-11T18:29:18.214Z,11.90
2019-05-11T18:31:44.549Z,11.90
2019-05-11T18:34:10.810Z,11.80
2019-05-11T18:36:38.229Z,11.80
2019-05-11T18:39:06.496Z,11.70
2019-05-11T18:41:33.355Z,11.80
2019-05-11T18:43:59.622Z,11.60
2019-05-11T18:46:27.887Z,11.50
2019-05-11T18:48:54.221Z,11.40
2019-05-11T18:51:20.518Z,11.40
2019-05-11T18:53:48.265Z,11.30
2019-05-11T18:56:15.454Z,11.20
2019-05-11T18:58:42.028Z,11.20
2019-05-11T19:01:08.633Z,11.10
2019-05-11T19:03:34.901Z,11.00
2019-05-11T19:06:01.249Z,10.90
2019-05-11T19:08:27.983Z,10.80
2019-05-11T19:10:54.813Z,10.80
2019-05-11T19:13:21.062Z,10.80
2019-05-11T19:15:48.745Z,10.80
2019-05-11T19:18:15.557Z,10.70
2019-05-11T19:20:45.820Z,10.70
2019-05-11T19:23:09.902Z,10.70
2019-05-11T19:25:37.523Z,10.70
2019-05-11T19:28:04.158Z,10.60
2019-05-11T19:30:30.510Z,10.60
2019-05-11T19:32:58.895Z,10.60
2019-05-11T19:35:24.816Z,10.60
2019-05-11T19:37:51.048Z,10.60
2019-05-11T19:40:17.308Z,10.40
2019-05-11T19:42:59.260Z,10.40
2019-05-11T19:45:29.349Z,10.30
2019-05-11T19:47:57.790Z,10.30
2019-05-11T19:50:24.116Z,10.20
2019-05-11T19:52:50.327Z,10.10
2019-05-11T19:55:17.893Z,10.00
2019-05-11T19:57:44.717Z,10.00
2019-05-11T20:00:11.951Z,9.90
2019-05-11T20:02:39.065Z,9.90
2019-05-11T20:05:06.018Z,9.90
2019-05-11T20:07:32.314Z,9.90
2019-05-11T20:09:58.560Z,9.90
2019-05-11T20:12:24.986Z,9.90
2019-05-11T20:14:51.457Z,9.90
2019-05-11T20:17:20.689Z,9.90
2019-05-11T20:19:48.910Z,9.80
2019-05-11T20:22:16.412Z,9.70
2019-05-11T20:24:42.690Z,9.70
2019-05-11T20:27:09.020Z,9.70
2019-05-11T20:29:35.299Z,9.60
2019-05-11T20:32:01.537Z,9.60
2019-05-11T20:34:29.010Z,9.60
2019-05-11T20:36:58.537Z,9.50
2019-05-11T20:39:24.569Z,9.40
2019-05-11T20:41:50.802Z,9.50
2019-05-11T20:44:17.948Z,9.40
2019-05-11T20:46:44.835Z,9.40
2019-05-11T20:49:11.479Z,9.40
2019-05-11T20:51:38.112Z,9.20
2019-05-11T20:54:04.772Z,9.20
2019-05-11T20:56:31.079Z,9.20
2019-05-11T20:58:59.336Z,9.20
2019-05-11T21:01:28.332Z,9.20
2019-05-11T21:03:54.662Z,9.20
2019-05-11T21:06:20.899Z,9.20
2019-05-11T21:08:48.260Z,9.20
2019-05-11T21:11:14.882Z,9.20
2019-05-11T21:13:41.724Z,9.10
2019-05-11T21:16:08.631Z,9.10
2019-05-11T21:18:35.258Z,9.10
2019-05-11T21:21:01.851Z,9.00
2019-05-11T21:23:29.006Z,8.90
2019-05-11T21:25:55.554Z,9.00
2019-05-11T21:28:22.166Z,9.00
2019-05-11T21:30:48.854Z,9.00
2019-05-11T21:33:17.754Z,8.90
2019-05-11T21:35:43.885Z,8.90
2019-05-11T21:38:10.390Z,8.90
2019-05-11T21:40:38.109Z,8.70
2019-05-11T21:43:08.520Z,8.80
2019-05-11T21:45:37.553Z,8.70
2019-05-11T21:48:03.497Z,8.70
2019-05-11T21:50:30.106Z,8.70
2019-05-11T21:52:58.783Z,8.70
2019-05-11T21:55:24.801Z,8.70
2019-05-11T21:57:51.283Z,8.60
2019-05-11T22:00:18.969Z,8.60
2019-05-11T22:02:45.384Z,8.60
2019-05-11T22:05:11.767Z,8.50
2019-05-11T22:07:38.717Z,8.50
2019-05-11T22:10:08.876Z,8.50
2019-05-11T22:12:35.317Z,8.60
2019-05-11T22:15:02.458Z,8.60
2019-05-11T22:17:30.817Z,8.50
2019-05-11T22:19:58.484Z,8.40
2019-05-11T22:22:25.649Z,8.40
2019-05-11T22:24:52.869Z,8.40
2019-05-11T22:27:19.517Z,8.50
2019-05-11T22:29:48.382Z,8.50
2019-05-11T22:32:14.437Z,8.40
2019-05-11T22:34:40.760Z,8.40
2019-05-11T22:37:08.645Z,8.50
2019-05-11T22:39:35.188Z,8.50
2019-05-11T22:42:01.806Z,8.50
2019-05-11T22:44:28.474Z,8.50
2019-05-11T22:46:55.088Z,8.40
2019-05-11T22:49:21.757Z,8.40
2019-05-11T22:51:48.453Z,8.30
2019-05-11T22:54:15.021Z,8.30
2019-05-11T22:56:41.641Z,8.30
2019-05-11T22:59:08.422Z,8.20
2019-05-11T23:01:35.021Z,8.30
2019-05-11T23:04:01.549Z,8.20
2019-05-11T23:06:27.830Z,8.10
2019-05-11T23:08:54.430Z,8.10
2019-05-11T23:11:21.103Z,8.10
2019-05-11T23:13:48.007Z,8.10
2019-05-11T23:16:14.778Z,8.00
2019-05-11T23:18:41.381Z,7.90
2019-05-11T23:21:08.732Z,7.90
2019-05-11T23:23:35.479Z,7.90
2019-05-11T23:26:01.732Z,7.90
2019-05-11T23:28:28.931Z,8.00
2019-05-11T23:30:55.433Z,8.00
2019-05-11T23:33:41.539Z,7.90
2019-05-11T23:36:07.994Z,7.90
2019-05-11T23:38:34.566Z,7.90
2019-05-11T23:41:01.321Z,7.80
2019-05-11T23:43:29.991Z,7.80
2019-05-11T23:45:57.752Z,7.80
2019-05-11T23:48:24.274Z,7.90
2019-05-11T23:50:50.524Z,7.90
2019-05-11T23:53:17.793Z,8.00
2019-05-11T23:55:44.731Z,8.10
2019-05-11T23:58:11.452Z,8.20
